PWSweather.com
Personal Weather Stations
Station Observations
RODAVGI
Xerovouni, RodavgiGR 47046

XerovouniRodavgiGR 47046

Lat: 39.3236, Lon: 20.9975

Elevation: 2287

Station Type: Ambient Weather WS-2902A

Latest ConditionsUpdated 12:52:00 AM GMT+02:02 Saturday, Dec 15, 2018
Currently Today's Max Today's Min Today's Average
Temperature 51.1°F10.6°C 51.3°F10.7°C 50.2°F10.1°C 50.9°F10.5°C
Dew Point 47.4°F8.6°C 48.2°F9.0°C 47.3°F8.5°C 47.7°F8.7°C
Winds Calm Calm 3.4 mph -5.5 kmh - - 0.8 mph 1.3 kmh
Wind Gusts -- 3.4 mph5.5 kmh - -
Humidity 87% 92% 87% 89%
Pressure 29.74 in1007.1 mb 29.75 in1007.5 mb 29.73 in1006.8 mb -
Hour Temp Dew Point Humidity Winds Wind Gusts Pressure Precip Precip Rate Daily Precip Total
12:52 AM 51.1°F10.6°C 47.4°F8.6°C 87% Calm Calm -- 29.74 in1007.1 mb 0.00 in0.0 mm 0.00 in0.0 mm 0.00 in0.0 mm
12:51 AM 51.1°F10.6°C 47.4°F8.6°C 87% 1.1 mph SSW1.8 kmh SSW 1.1 mph1.8 kmh 29.74 in1007.1 mb 0.00 in0.0 mm 0.00 in0.0 mm 0.00 in0.0 mm
12:50 AM 51.1°F10.6°C 47.4°F8.6°C 87% 0.9 mph SSW1.4 kmh SSW 1.1 mph1.8 kmh 29.74 in1007.1 mb 0.00 in0.0 mm 0.00 in0.0 mm 0.00 in0.0 mm
12:49 AM 51.1°F10.6°C 47.4°F8.6°C 87% 1.1 mph SSW1.8 kmh SSW 1.1 mph1.8 kmh 29.74 in1007.1 mb 0.00 in0.0 mm 0.00 in0.0 mm 0.00 in0.0 mm
12:48 AM 51.1°F10.6°C 47.7°F8.7°C 88% 1.8 mph SSW2.9 kmh SSW 2.2 mph3.5 kmh 29.74 in1007.1 mb 0.00 in0.0 mm 0.00 in0.0 mm 0.00 in0.0 mm
12:47 AM 51.1°F10.6°C 47.7°F8.7°C 88% Calm Calm -- 29.74 in1007.1 mb 0.00 in0.0 mm 0.00 in0.0 mm 0.00 in0.0 mm
12:46 AM 51.1°F10.6°C 47.7°F8.7°C 88% Calm Calm -- 29.74 in1007.1 mb 0.00 in0.0 mm 0.00 in0.0 mm 0.00 in0.0 mm
12:45 AM 51.3°F10.7°C 47.9°F8.8°C 88% Calm Calm -- 29.74 in1007.1 mb 0.00 in0.0 mm 0.00 in0.0 mm 0.00 in0.0 mm
12:44 AM 51.3°F10.7°C 47.9°F8.8°C 88% Calm Calm -- 29.74 in1007.1 mb 0.00 in0.0 mm 0.00 in0.0 mm 0.00 in0.0 mm
12:43 AM 51.3°F10.7°C 47.9°F8.8°C 88% Calm Calm -- 29.74 in1007.1 mb 0.00 in0.0 mm 0.00 in0.0 mm 0.00 in0.0 mm
12:42 AM 51.3°F10.7°C 47.9°F8.8°C 88% Calm Calm -- 29.73 in1006.8 mb 0.00 in0.0 mm 0.00 in0.0 mm 0.00 in0.0 mm
12:41 AM 51.1°F10.6°C 47.4°F8.6°C 87% 0.9 mph SSW1.4 kmh SSW 1.1 mph1.8 kmh 29.74 in1007.1 mb 0.00 in0.0 mm 0.00 in0.0 mm 0.00 in0.0 mm
12:39 AM 51.3°F10.7°C 47.9°F8.8°C 88% Calm Calm -- 29.74 in1007.1 mb 0.00 in0.0 mm 0.00 in0.0 mm 0.00 in0.0 mm
12:38 AM 51.3°F10.7°C 47.9°F8.8°C 88% Calm Calm -- 29.74 in1007.1 mb 0.00 in0.0 mm 0.00 in0.0 mm 0.00 in0.0 mm
12:37 AM 51.3°F10.7°C 47.9°F8.8°C 88% Calm Calm -- 29.74 in1007.1 mb 0.00 in0.0 mm 0.00 in0.0 mm 0.00 in0.0 mm
12:36 AM 51.3°F10.7°C 47.9°F8.8°C 88% 0.2 mph WSW0.3 kmh WSW 1.1 mph1.8 kmh 29.74 in1007.1 mb 0.00 in0.0 mm 0.00 in0.0 mm 0.00 in0.0 mm
12:35 AM 51.3°F10.7°C 47.9°F8.8°C 88% 0.7 mph WSW1.1 kmh WSW 1.1 mph1.8 kmh 29.74 in1007.1 mb 0.00 in0.0 mm 0.00 in0.0 mm 0.00 in0.0 mm
12:33 AM 51.3°F10.7°C 47.9°F8.8°C 88% 0.9 mph WSW1.4 kmh WSW 1.1 mph1.8 kmh 29.74 in1007.1 mb 0.00 in0.0 mm 0.00 in0.0 mm 0.00 in0.0 mm
12:32 AM 51.3°F10.7°C 47.6°F8.7°C 87% 1.6 mph WSW2.6 kmh WSW 2.2 mph3.5 kmh 29.75 in1007.5 mb 0.00 in0.0 mm 0.00 in0.0 mm 0.00 in0.0 mm
12:31 AM 50.9°F10.5°C 47.5°F8.6°C 88% 2.0 mph WSW3.2 kmh WSW 2.2 mph3.5 kmh 29.74 in1007.1 mb 0.00 in0.0 mm 0.00 in0.0 mm 0.00 in0.0 mm
12:30 AM 50.7°F10.4°C 47.3°F8.5°C 88% 3.4 mph WSW5.5 kmh WSW 3.4 mph5.5 kmh 29.74 in1007.1 mb 0.00 in0.0 mm 0.00 in0.0 mm 0.00 in0.0 mm
12:29 AM 50.7°F10.4°C 47.6°F8.7°C 89% 1.6 mph W2.6 kmh W 2.2 mph3.5 kmh 29.74 in1007.1 mb 0.00 in0.0 mm 0.00 in0.0 mm 0.00 in0.0 mm
12:27 AM 50.5°F10.3°C 47.7°F8.7°C 90% 2.2 mph WNW3.5 kmh WNW 3.4 mph5.5 kmh 29.75 in1007.5 mb 0.00 in0.0 mm 0.00 in0.0 mm 0.00 in0.0 mm
12:25 AM 50.5°F10.3°C 48.0°F8.9°C 91% 1.3 mph SSW2.1 kmh SSW 2.2 mph3.5 kmh 29.74 in1007.1 mb 0.00 in0.0 mm 0.00 in0.0 mm 0.00 in0.0 mm
12:24 AM 50.7°F10.4°C 47.9°F8.8°C 90% Calm Calm -- 29.75 in1007.5 mb 0.00 in0.0 mm 0.00 in0.0 mm 0.00 in0.0 mm
12:23 AM 50.7°F10.4°C 47.9°F8.8°C 90% 0.9 mph SE1.4 kmh SE 1.1 mph1.8 kmh 29.74 in1007.1 mb 0.00 in0.0 mm 0.00 in0.0 mm 0.00 in0.0 mm
12:22 AM 50.7°F10.4°C 47.6°F8.7°C 89% 0.9 mph SE1.4 kmh SE 1.1 mph1.8 kmh 29.75 in1007.5 mb 0.00 in0.0 mm 0.00 in0.0 mm 0.00 in0.0 mm
12:21 AM 50.7°F10.4°C 47.3°F8.5°C 88% Calm Calm -- 29.75 in1007.5 mb 0.00 in0.0 mm 0.00 in0.0 mm 0.00 in0.0 mm
12:19 AM 50.7°F10.4°C 47.6°F8.7°C 89% 1.1 mph SE1.8 kmh SE 1.1 mph1.8 kmh 29.74 in1007.1 mb 0.00 in0.0 mm 0.00 in0.0 mm 0.00 in0.0 mm
12:18 AM 50.9°F10.5°C 48.1°F8.9°C 90% 1.8 mph SE2.9 kmh SE 2.2 mph3.5 kmh 29.74 in1007.1 mb 0.00 in0.0 mm 0.00 in0.0 mm 0.00 in0.0 mm
12:17 AM 50.9°F10.5°C 47.8°F8.8°C 89% 1.1 mph S1.8 kmh S 1.1 mph1.8 kmh 29.74 in1007.1 mb 0.00 in0.0 mm 0.00 in0.0 mm 0.00 in0.0 mm
12:16 AM 50.7°F10.4°C 47.6°F8.7°C 89% 1.3 mph SSW2.1 kmh SSW 2.2 mph3.5 kmh 29.75 in1007.5 mb 0.00 in0.0 mm 0.00 in0.0 mm 0.00 in0.0 mm
12:15 AM 50.7°F10.4°C 47.6°F8.7°C 89% 1.3 mph SW2.1 kmh SW 2.2 mph3.5 kmh 29.75 in1007.5 mb 0.00 in0.0 mm 0.00 in0.0 mm 0.00 in0.0 mm
12:13 AM 50.5°F10.3°C 47.7°F8.7°C 90% 1.8 mph WSW2.9 kmh WSW 2.2 mph3.5 kmh 29.75 in1007.5 mb 0.00 in0.0 mm 0.00 in0.0 mm 0.00 in0.0 mm
12:12 AM 50.5°F10.3°C 47.7°F8.7°C 90% 1.1 mph S1.8 kmh S 1.1 mph1.8 kmh 29.75 in1007.5 mb 0.00 in0.0 mm 0.00 in0.0 mm 0.00 in0.0 mm
12:11 AM 50.5°F10.3°C 48.0°F8.9°C 91% 0.2 mph SSE0.3 kmh SSE 1.1 mph1.8 kmh 29.74 in1007.1 mb 0.00 in0.0 mm 0.00 in0.0 mm 0.00 in0.0 mm
12:09 AM 50.5°F10.3°C 47.7°F8.7°C 90% Calm Calm -- 29.74 in1007.1 mb 0.00 in0.0 mm 0.00 in0.0 mm 0.00 in0.0 mm
12:08 AM 50.5°F10.3°C 47.7°F8.7°C 90% Calm Calm -- 29.75 in1007.5 mb 0.00 in0.0 mm 0.00 in0.0 mm 0.00 in0.0 mm
12:07 AM 50.4°F10.2°C 47.9°F8.8°C 91% 0.9 mph SE1.4 kmh SE 1.1 mph1.8 kmh 29.75 in1007.5 mb 0.00 in0.0 mm 0.00 in0.0 mm 0.00 in0.0 mm
12:06 AM 50.4°F10.2°C 47.9°F8.8°C 91% 0.9 mph SSE1.4 kmh SSE 1.1 mph1.8 kmh 29.74 in1007.1 mb 0.00 in0.0 mm 0.00 in0.0 mm 0.00 in0.0 mm
12:05 AM 50.2°F10.1°C 47.4°F8.6°C 90% 0.7 mph SSE1.1 kmh SSE 1.1 mph1.8 kmh 29.75 in1007.5 mb 0.00 in0.0 mm 0.00 in0.0 mm 0.00 in0.0 mm
12:03 AM 50.2°F10.1°C 47.7°F8.7°C 91% Calm Calm -- 29.75 in1007.5 mb 0.00 in0.0 mm 0.00 in0.0 mm 0.00 in0.0 mm
12:02 AM 50.2°F10.1°C 48.0°F8.9°C 92% 0.9 mph SE1.4 kmh SE 1.1 mph1.8 kmh 29.75 in1007.5 mb 0.00 in0.0 mm 0.00 in0.0 mm 0.00 in0.0 mm
12:00 AM 50.4°F10.2°C 48.2°F9.0°C 92% Calm Calm -- 29.75 in1007.5 mb 0.00 in0.0 mm 0.00 in0.0 mm 0.00 in0.0 mm